Thursday, August 25, 2016
02:48 UTC
  |  Log In   |  Register Free
Airport Search:

Newnan Coweta County Airport
(KCCO)

Newnan Coweta County Airport Diagram
No Airport Diagram Available

FAA data valid effective Jul 21 2016 - Sep 15 2016 (unless otherwise noted).

 
 
 
 
 
 
 
 
 
 
 
 
 
 
Current Aviation Weather for KCCO

Weather Summary


The most recent METAR observation for CCO was updated at: 12:55 UTC
METAR for CCO is not available. Closest METAR is for
METAR

METAR KCCO 250235Z 00000KT 10SM CLR 25/25 A3022 RMK AO2 T02450245

METAR KCCO 250215Z 00000KT 10SM CLR 25/25 A3022 RMK AO2 T02450245

METAR KCCO 250155Z 00000KT 10SM CLR 25/25 A3021 RMK AO2 T02470247

METAR KCCO 250135Z 00000KT 10SM CLR 25/25 A3021 RMK AO2 T02500250

METAR KCCO 250115Z 00000KT 10SM CLR 25/25 A3020 RMK AO2 T02500250

METAR KCCO 250055Z 07003KT 10SM CLR 25/25 A3020 RMK AO2 T02500250

METAR KCCO 250035Z 09003KT 10SM CLR 25/25 A3020 RMK AO2 T02520252

METAR KCCO 250015Z 00000KT 10SM CLR 26/25 A3020 RMK AO2 T02550253

METAR KCCO 242355Z 00000KT 10SM CLR 26/26 A3020 RMK AO2 T02590255 10328 20245

METAR K4A7 250235Z 00000KT 10SM CLR 23/23 A3023 RMK AO2 T02300230

METAR K6A2 250235Z 00000KT 10SM CLR 25/24 A3022 RMK AO2

METAR KATL 250152Z 10004KT 10SM FEW200 BKN250 26/22 A3021 RMK AO2 SLP221 T02560222 $

TAF for CCO is not available.
TAF

KATL - TAF AMD KATL 250200Z 2502/2606 11004KT P6SM SCT200

KATL - FM251500 09004KT P6SM SCT040

KATL - FM251700 07004KT P6SM BKN050

KATL - FM260000 07005KT P6SM BKN250 =

KFTY - TAF KFTY 242320Z 2500/2524 13004KT P6SM SCT100

KFTY - FM250100 VRB03KT P6SM SCT150

KFTY - FM251500 VRB03KT P6SM SCT040

KFTY - FM251700 07004KT P6SM BKN050 =

GlobalAir.com is loading additional information.
 Current Weather at CCO
77.0 F° (25.0 C°)

East winds at 3.5 mph
Pressure:
30.20 in
Humidity:
100%
Wind:
East at 3.5 mph
Dew Point:
77.0 F° (25.0 C°)
Visibility:
10.00 mi
CCO NOAA Radar




Find All Airport Services Find A Hotel Find A Rental Car Find A Golf Course Find A Restaurant $100 Hamburger



Airport Weather Forecast for KCCO

Translated METAR for KCCO (0235 UTC)
METAR:
KCCO 250235Z AUTO Newnan Coweta County, Atlanta, GA (KCCO). Aug 25, 0235Z, Automated. Wind is Calm, 10 statute miles visibility, Clear Skies, Temperature 25°C, Dewpoint 25°C, Altimeter is 30.22. Remarks: automated station with precipitation discriminator hourly temp 24.5°C dewpoint 24.5°C
Conditions at:
KCCO (Newnan Coweta County, GA) observed 0235 UTC 24 August 2016
Temperature:
77.0 F° (25.0 C°)
Dewpoint:
not reported - refer to area weather report
Pressure:
30.20 Hg
Winds:
not reported
Visibility:
10.00
Ceiling:
at least 12,000 feet AGL
Clouds:
not reported - refer to area weather report
Remarks:
site is un-manned

Translated TAF for TAF for CCO is not available. Refer to local area forecast.
FBO's on the Field
FBO Company Facility Photos Services Transportation Aviation Fuel Prices: Prices include tax
Catering Weather Repair Courtesy Rental Type 100LL JetA JetA+ MOGAS 8087
 
CCO Airport Services

This FBO has not yet been rated
FS:Shell
Last Updated: Aug-02
Login to update fuel prices
SS:
Contact CCO Airport ServicesMore FBO Information
 
Add another FBO Facility Photos Catering Weather Repair Courtesy Rental Type 100LL JetA JetA+ MOGAS 8087
Services Transportation Aviation Fuel Prices: Prices include tax


model-print
model-print
model-print
model-print